Deming Municipal Airport Deming US
ICAO: KDMN
IATA: DMN
Category: Medium
Scheduled Services: No

Elevation: 4314 ft
TransAlt. 18000 ft.

Airport Communications:
ASOS:118.525
ALBUQUERQUE CNTR:128.2
ALBUQUERQUE RDO:122.2
CTAF/UNICOM:122.8

KDMN Zoom In..

If you have problems with the map follow the link
https://www.worldairports.se/pages/airport.php?
ICAO=KDMN

Runways:

(A) RW 04 length 5675 ft width 60 ft
---- / hdg 42

(B) RW 08 length 8018 ft width 75 ft
---- / hdg 80

(C) RW 22 length 5675 ft width 60 ft
---- / hdg 222

(D) RW 26 length 8018 ft width 75 ft
---- / hdg 260

Location; KDMN
Day. 19 / Time. 00.53 Zulu
* Altimeter: 30.24
* Temperature: 10° c. 50°f.
* Wind from: 070° Speed 06 kn.
Dewpoint: 08° c.
Visibility: 10 Statute Miles.
Clouds: Overcast 1900 ft.

KDMN 190053Z AUTO 07006KT 10SM OVC019 10/08 A3024 RMK AO2 SLP211 T01000078


Wind From 070°
Speed 06 kn.

 
 
jpsmedia.com for Web Design worldairports.se 2018   terms of use